createdAt,value
2023-05-22T00:01:04.829Z,16.83
2023-05-22T00:03:31.400Z,19.48
2023-05-22T00:05:58.854Z,16.90
2023-05-22T00:08:29.816Z,17.35
2023-05-22T00:10:56.659Z,19.33
2023-05-22T00:13:23.217Z,16.73
2023-05-22T00:15:49.842Z,15.80
2023-05-22T00:18:16.595Z,16.77
2023-05-22T00:20:46.303Z,15.80
2023-05-22T00:23:15.543Z,15.73
2023-05-22T00:25:42.430Z,16.15
2023-05-22T00:28:09.047Z,17.95
2023-05-22T00:30:37.325Z,16.65
2023-05-22T00:33:04.195Z,15.70
2023-05-22T00:35:30.745Z,15.48
2023-05-22T00:37:57.586Z,17.45
2023-05-22T00:40:24.131Z,15.77
2023-05-22T00:42:50.606Z,15.65
2023-05-22T00:45:17.231Z,15.75
2023-05-22T00:47:44.841Z,16.38
2023-05-22T00:50:12.345Z,15.52
2023-05-22T00:52:42.662Z,15.05
2023-05-22T00:55:10.791Z,15.60
2023-05-22T00:57:42.276Z,16.42
2023-05-22T01:00:13.488Z,13.90
2023-05-22T01:02:42.988Z,15.38
2023-05-22T01:05:13.186Z,14.95
2023-05-22T01:07:40.280Z,14.48
2023-05-22T01:10:07.630Z,16.25
2023-05-22T01:12:52.895Z,15.45
2023-05-22T01:15:46.574Z,14.98
2023-05-22T01:18:25.219Z,14.75
2023-05-22T01:21:06.229Z,16.20
2023-05-22T01:23:57.540Z,17.27
2023-05-22T01:26:36.156Z,15.48
2023-05-22T01:29:15.351Z,15.57
2023-05-22T01:31:43.694Z,16.13
2023-05-22T01:34:14.633Z,15.88
2023-05-22T01:36:42.639Z,17.13
2023-05-22T01:39:09.626Z,16.20
2023-05-22T01:41:36.242Z,15.30
2023-05-22T01:44:03.691Z,15.85
2023-05-22T01:46:31.378Z,17.48
2023-05-22T01:48:59.087Z,17.58
2023-05-22T01:51:39.653Z,15.35
2023-05-22T01:54:26.950Z,28.77
2023-05-22T01:57:00.053Z,17.83
2023-05-22T01:59:36.233Z,15.20
2023-05-22T02:02:06.339Z,15.30
2023-05-22T02:04:36.736Z,15.63
2023-05-22T02:07:03.981Z,14.48
2023-05-22T02:09:31.177Z,16.83
2023-05-22T02:11:59.378Z,15.85
2023-05-22T02:14:29.336Z,16.80
2023-05-22T02:16:56.726Z,16.80
2023-05-22T02:19:24.156Z,16.10
2023-05-22T02:21:50.759Z,15.73
2023-05-22T02:24:17.298Z,14.40
2023-05-22T02:26:44.295Z,16.98
2023-05-22T02:29:10.790Z,16.00
2023-05-22T02:31:37.312Z,17.77
2023-05-22T02:34:05.377Z,16.48
2023-05-22T02:36:32.324Z,17.30
2023-05-22T02:38:59.846Z,16.30
2023-05-22T02:41:26.467Z,16.52
2023-05-22T02:43:53.158Z,17.10
2023-05-22T02:46:19.771Z,15.68
2023-05-22T02:48:46.308Z,15.32
2023-05-22T02:51:12.765Z,16.13
2023-05-22T02:53:41.188Z,15.50
2023-05-22T02:56:08.737Z,18.55
2023-05-22T02:58:35.307Z,15.77
2023-05-22T03:01:03.424Z,16.08
2023-05-22T03:03:31.389Z,14.52
2023-05-22T03:05:58.485Z,15.73
2023-05-22T03:08:28.242Z,15.98
2023-05-22T03:10:56.573Z,17.77
2023-05-22T03:13:23.406Z,15.13
2023-05-22T03:15:49.944Z,16.73
2023-05-22T03:18:18.042Z,16.05
2023-05-22T03:20:45.366Z,16.30
2023-05-22T03:23:13.125Z,17.75
2023-05-22T03:25:39.760Z,16.55
2023-05-22T03:28:06.416Z,16.42
2023-05-22T03:30:37.314Z,16.70
2023-05-22T03:33:19.491Z,15.50
2023-05-22T03:35:46.127Z,16.20
2023-05-22T03:38:12.702Z,16.77
2023-05-22T03:40:40.065Z,18.65
2023-05-22T03:43:07.885Z,17.25
2023-05-22T03:45:34.475Z,15.45
2023-05-22T03:48:02.620Z,15.75
2023-05-22T03:50:29.454Z,17.13
2023-05-22T03:52:55.953Z,15.65
2023-05-22T03:55:22.410Z,15.25
2023-05-22T03:57:48.908Z,18.75
2023-05-22T04:00:19.524Z,16.20
2023-05-22T04:02:46.749Z,16.75
2023-05-22T04:05:13.499Z,15.30
2023-05-22T04:07:40.066Z,16.05
2023-05-22T04:10:07.080Z,15.02
2023-05-22T04:12:33.856Z,16.23
2023-05-22T04:15:00.422Z,16.58
2023-05-22T04:17:32.470Z,17.13
2023-05-22T04:20:00.313Z,14.90
2023-05-22T04:22:27.508Z,17.63
2023-05-22T04:24:53.996Z,15.38
2023-05-22T04:27:22.506Z,16.73
2023-05-22T04:29:50.365Z,17.65
2023-05-22T04:32:21.788Z,15.90
2023-05-22T04:34:51.036Z,17.40
2023-05-22T04:37:20.046Z,15.90
2023-05-22T04:39:47.090Z,18.17
2023-05-22T04:42:14.488Z,17.87
2023-05-22T04:44:41.896Z,16.30
2023-05-22T04:47:12.060Z,16.57
2023-05-22T04:49:39.189Z,16.30
2023-05-22T04:52:07.128Z,15.88
2023-05-22T04:54:34.464Z,16.38
2023-05-22T04:57:03.087Z,14.05
2023-05-22T04:59:29.608Z,14.00
2023-05-22T05:01:56.093Z,13.43
2023-05-22T05:04:24.498Z,14.85
2023-05-22T05:06:52.785Z,14.25
2023-05-22T05:09:19.278Z,14.32
2023-05-22T05:11:45.784Z,14.07
2023-05-22T05:14:12.378Z,14.07
2023-05-22T05:16:38.916Z,15.75
2023-05-22T05:19:06.616Z,15.18
2023-05-22T05:21:33.350Z,14.70
2023-05-22T05:24:00.942Z,19.33
2023-05-22T05:26:27.617Z,17.52
2023-05-22T05:28:56.451Z,16.33
2023-05-22T05:31:23.373Z,16.50
2023-05-22T05:34:06.229Z,14.65
2023-05-22T05:36:52.429Z,16.30
2023-05-22T05:39:20.560Z,14.90
2023-05-22T05:41:47.768Z,14.63
2023-05-22T05:44:15.657Z,14.77
2023-05-22T05:46:42.448Z,14.75
2023-05-22T05:49:10.271Z,15.60
2023-05-22T05:51:38.660Z,14.15
2023-05-22T05:54:06.138Z,14.55
2023-05-22T05:56:32.942Z,15.10
2023-05-22T05:59:00.148Z,14.30
2023-05-22T06:01:35.113Z,14.88
2023-05-22T06:04:03.419Z,15.23
2023-05-22T06:06:39.276Z,15.52
2023-05-22T06:09:24.655Z,14.90
2023-05-22T06:12:06.907Z,14.60
2023-05-22T06:14:33.892Z,14.63
2023-05-22T06:17:00.436Z,15.02
2023-05-22T06:19:27.172Z,15.35
2023-05-22T06:21:55.240Z,14.68
2023-05-22T06:24:22.177Z,15.13
2023-05-22T06:26:49.678Z,15.32
2023-05-22T06:29:16.163Z,14.68
2023-05-22T06:31:43.256Z,14.23
2023-05-22T06:34:10.856Z,14.98
2023-05-22T06:36:37.403Z,16.17
2023-05-22T06:39:04.845Z,15.05
2023-05-22T06:41:58.247Z,16.10
2023-05-22T06:44:25.708Z,15.93
2023-05-22T06:46:55.400Z,15.18
2023-05-22T06:49:24.559Z,16.63
2023-05-22T06:51:53.972Z,16.00
2023-05-22T06:54:21.428Z,16.63
2023-05-22T06:56:51.141Z,16.20
2023-05-22T06:59:18.102Z,15.90
2023-05-22T07:02:03.141Z,15.63
2023-05-22T07:04:53.550Z,15.77
2023-05-22T07:07:31.128Z,15.77
2023-05-22T07:09:57.707Z,17.45
2023-05-22T07:12:26.201Z,15.93
2023-05-22T07:14:54.490Z,14.95
2023-05-22T07:17:23.495Z,15.68
2023-05-22T07:19:50.902Z,14.77
2023-05-22T07:22:17.826Z,16.35
2023-05-22T07:24:47.205Z,15.18
2023-05-22T07:27:15.756Z,15.35
2023-05-22T07:29:42.382Z,15.73
2023-05-22T07:32:09.194Z,15.65
2023-05-22T07:34:36.478Z,15.30
2023-05-22T07:37:08.505Z,14.52
2023-05-22T07:39:35.482Z,17.50
2023-05-22T07:42:02.950Z,14.20
2023-05-22T07:44:31.707Z,15.68
2023-05-22T07:46:59.421Z,15.40
2023-05-22T07:49:28.233Z,14.30
2023-05-22T07:51:54.794Z,15.20
2023-05-22T07:54:24.131Z,14.52
2023-05-22T07:56:52.510Z,13.85
2023-05-22T07:59:21.588Z,14.43
2023-05-22T08:01:48.069Z,14.25
2023-05-22T08:04:14.796Z,16.15
2023-05-22T08:06:41.613Z,13.85
2023-05-22T08:09:08.060Z,14.50
2023-05-22T08:11:34.976Z,13.93
2023-05-22T08:14:01.654Z,13.65
2023-05-22T08:16:28.153Z,13.18
2023-05-22T08:18:54.695Z,13.02
2023-05-22T08:21:21.266Z,13.15
2023-05-22T08:23:47.729Z,13.70
2023-05-22T08:26:15.250Z,14.07
2023-05-22T08:28:44.712Z,14.75
2023-05-22T08:31:11.912Z,13.82
2023-05-22T08:33:38.592Z,13.27
2023-05-22T08:36:05.891Z,13.60
2023-05-22T08:38:32.606Z,13.95
2023-05-22T08:40:59.203Z,13.77
2023-05-22T08:43:25.782Z,14.32
2023-05-22T08:45:57.783Z,14.30
2023-05-22T08:48:29.207Z,13.80
2023-05-22T08:51:02.416Z,15.98
2023-05-22T08:53:31.164Z,13.38
2023-05-22T08:55:57.778Z,13.75
2023-05-22T08:58:24.600Z,12.55
2023-05-22T09:00:52.495Z,13.57
2023-05-22T09:03:21.405Z,13.73
2023-05-22T09:05:49.341Z,14.30
2023-05-22T09:08:20.771Z,12.55
2023-05-22T09:10:47.868Z,13.27
2023-05-22T09:13:24.361Z,13.13
2023-05-22T09:15:50.901Z,12.77
2023-05-22T09:18:17.349Z,13.98
2023-05-22T09:20:43.849Z,13.27
2023-05-22T09:23:21.557Z,14.05
2023-05-22T09:25:48.075Z,13.30
2023-05-22T09:28:14.564Z,13.18
2023-05-22T09:30:42.459Z,13.73
2023-05-22T09:33:12.844Z,13.63
2023-05-22T09:35:39.722Z,13.43
2023-05-22T09:38:06.466Z,13.20
2023-05-22T09:40:35.036Z,14.00
2023-05-22T09:43:06.479Z,12.93
2023-05-22T09:45:35.090Z,12.52
2023-05-22T09:48:05.670Z,12.95
2023-05-22T09:50:32.648Z,13.00
2023-05-22T09:53:04.017Z,12.88
2023-05-22T09:55:34.968Z,13.50
2023-05-22T09:58:04.837Z,13.50
2023-05-22T10:00:34.213Z,13.27
2023-05-22T10:03:12.500Z,12.52
2023-05-22T10:05:43.592Z,12.23
2023-05-22T10:08:24.369Z,11.75
2023-05-22T10:10:52.826Z,12.02
2023-05-22T10:13:20.786Z,11.93
2023-05-22T10:15:49.064Z,12.73
2023-05-22T10:18:16.933Z,12.90
2023-05-22T10:20:44.585Z,12.85
2023-05-22T10:23:12.252Z,13.40
2023-05-22T10:25:39.053Z,12.38
2023-05-22T10:28:06.916Z,13.18
2023-05-22T10:30:43.249Z,12.82
2023-05-22T10:33:35.279Z,11.70
2023-05-22T10:36:05.164Z,12.30
2023-05-22T10:38:54.129Z,11.15
2023-05-22T10:41:22.376Z,11.75
2023-05-22T10:43:49.803Z,12.00
2023-05-22T10:46:17.005Z,11.52
2023-05-22T10:48:48.493Z,11.43
2023-05-22T10:51:20.575Z,10.95
2023-05-22T10:53:53.256Z,10.98
2023-05-22T10:56:20.412Z,10.48
2023-05-22T10:58:59.155Z,11.73
2023-05-22T11:01:26.432Z,10.32
2023-05-22T11:04:01.156Z,10.70
2023-05-22T11:06:41.375Z,11.02
2023-05-22T11:09:20.117Z,12.20
2023-05-22T11:11:47.377Z,11.20
2023-05-22T11:14:19.588Z,11.07
2023-05-22T11:16:46.147Z,11.48
2023-05-22T11:19:23.486Z,10.90
2023-05-22T11:21:50.791Z,11.40
2023-05-22T11:24:18.080Z,10.90
2023-05-22T11:26:44.712Z,9.68
2023-05-22T11:29:11.206Z,9.77
2023-05-22T11:31:38.585Z,10.95
2023-05-22T11:34:05.189Z,11.88
2023-05-22T11:36:32.089Z,11.88
2023-05-22T11:39:00.009Z,11.68
2023-05-22T11:41:33.178Z,11.90
2023-05-22T11:44:01.474Z,12.63
2023-05-22T11:46:28.069Z,13.13
2023-05-22T11:48:54.801Z,11.32
2023-05-22T11:51:21.756Z,12.25
2023-05-22T11:53:48.340Z,11.40
2023-05-22T11:56:14.844Z,11.90
2023-05-22T11:58:41.488Z,10.68
2023-05-22T12:01:07.895Z,11.07
2023-05-22T12:03:34.455Z,10.95
2023-05-22T12:06:01.856Z,11.45
2023-05-22T12:08:28.682Z,10.23
2023-05-22T12:10:55.180Z,10.35
2023-05-22T12:13:29.128Z,11.02
2023-05-22T12:15:59.995Z,11.07
2023-05-22T12:18:27.558Z,9.90
2023-05-22T12:20:56.974Z,10.65
2023-05-22T12:23:28.319Z,9.93
2023-05-22T12:25:58.585Z,12.45
2023-05-22T12:28:25.653Z,9.55
2023-05-22T12:30:53.610Z,10.38
2023-05-22T12:33:20.603Z,9.55
2023-05-22T12:35:50.882Z,9.88
2023-05-22T12:38:20.909Z,22.27
2023-05-22T12:40:47.374Z,10.52
2023-05-22T12:43:13.901Z,9.95
2023-05-22T12:45:43.078Z,10.00
2023-05-22T12:48:09.785Z,10.00
2023-05-22T12:50:36.313Z,10.23
2023-05-22T12:53:02.904Z,10.15
2023-05-22T12:55:29.345Z,10.80
2023-05-22T12:57:55.775Z,10.27
2023-05-22T13:00:25.358Z,9.95
2023-05-22T13:02:52.062Z,9.50
2023-05-22T13:05:18.786Z,11.30
2023-05-22T13:07:45.369Z,9.23
2023-05-22T13:10:11.929Z,9.27
2023-05-22T13:12:38.468Z,9.30
2023-05-22T13:15:05.515Z,9.23
2023-05-22T13:17:32.358Z,9.43
2023-05-22T13:19:58.896Z,9.45
2023-05-22T13:22:25.973Z,10.57
2023-05-22T13:24:52.475Z,10.18
2023-05-22T13:27:19.053Z,10.15
2023-05-22T13:29:45.585Z,9.93
2023-05-22T13:32:13.581Z,10.60
2023-05-22T13:34:43.223Z,11.68
2023-05-22T13:37:10.028Z,10.55
2023-05-22T13:39:36.893Z,10.40
2023-05-22T13:42:03.687Z,11.50
2023-05-22T13:44:30.121Z,10.00
2023-05-22T13:46:56.616Z,10.77
2023-05-22T13:49:23.140Z,10.75
2023-05-22T13:51:49.577Z,10.48
2023-05-22T13:54:16.121Z,9.70
2023-05-22T13:56:42.597Z,10.23
2023-05-22T13:59:09.477Z,10.18
2023-05-22T14:01:36.188Z,10.15
2023-05-22T14:04:03.236Z,9.65
2023-05-22T14:06:29.722Z,9.88
2023-05-22T14:08:56.228Z,9.98
2023-05-22T14:11:23.068Z,9.45
2023-05-22T14:13:49.966Z,9.70
2023-05-22T14:16:16.537Z,9.18
2023-05-22T14:18:43.001Z,10.77
2023-05-22T14:21:09.442Z,11.85
2023-05-22T14:23:35.918Z,12.02
2023-05-22T14:26:02.383Z,14.10
2023-05-22T14:28:28.865Z,13.00
2023-05-22T14:30:55.920Z,13.05
2023-05-22T14:33:22.426Z,13.40
2023-05-22T14:35:51.037Z,12.90
2023-05-22T14:38:17.489Z,13.45
2023-05-22T14:40:43.977Z,13.32
2023-05-22T14:43:10.429Z,14.95
2023-05-22T14:45:36.904Z,11.98
2023-05-22T14:48:03.856Z,13.07
2023-05-22T14:50:30.342Z,15.48
2023-05-22T14:52:56.856Z,11.68
2023-05-22T14:55:27.535Z,12.63
2023-05-22T14:57:54.420Z,11.15
2023-05-22T15:00:20.998Z,12.70
2023-05-22T15:02:47.610Z,10.48
2023-05-22T15:05:14.150Z,8.65
2023-05-22T15:07:44.627Z,12.40
2023-05-22T15:10:13.137Z,11.80
2023-05-22T15:12:39.694Z,11.43
2023-05-22T15:15:06.704Z,11.20
2023-05-22T15:17:33.269Z,10.13
2023-05-22T15:19:59.729Z,9.93
2023-05-22T15:22:26.245Z,5.38
2023-05-22T15:25:06.947Z,6.57
2023-05-22T15:27:35.030Z,6.47
2023-05-22T15:30:02.684Z,9.13
2023-05-22T15:32:30.606Z,9.27
2023-05-22T15:34:57.368Z,11.43
2023-05-22T15:37:23.901Z,8.20
2023-05-22T15:39:50.454Z,9.38
2023-05-22T15:42:16.957Z,12.45
2023-05-22T15:44:43.550Z,9.15
2023-05-22T15:47:09.992Z,9.30
2023-05-22T15:49:36.557Z,8.43
2023-05-22T15:52:03.053Z,8.85
2023-05-22T15:54:29.504Z,7.25
2023-05-22T15:56:56.109Z,7.30
2023-05-22T15:59:22.554Z,6.97
2023-05-22T16:01:49.203Z,8.02
2023-05-22T16:04:15.839Z,6.90
2023-05-22T16:06:42.370Z,8.77
2023-05-22T16:09:09.933Z,7.60
2023-05-22T16:11:37.785Z,7.70
2023-05-22T16:14:04.763Z,9.48
2023-05-22T16:16:32.340Z,7.72
2023-05-22T16:18:58.907Z,7.50
2023-05-22T16:21:25.398Z,8.40
2023-05-22T16:23:52.222Z,8.75
2023-05-22T16:26:18.680Z,7.97
2023-05-22T16:28:45.305Z,10.30
2023-05-22T16:31:12.957Z,7.50
2023-05-22T16:33:39.537Z,10.73
2023-05-22T16:36:06.340Z,6.35
2023-05-22T16:38:32.800Z,6.00
2023-05-22T16:40:59.357Z,6.28
2023-05-22T16:43:26.089Z,9.00
2023-05-22T16:45:52.572Z,7.10
2023-05-22T16:48:19.186Z,6.00
2023-05-22T16:50:46.754Z,7.20
2023-05-22T16:53:14.019Z,9.05
2023-05-22T16:55:40.843Z,6.57
2023-05-22T16:58:08.989Z,6.45
2023-05-22T17:00:36.709Z,6.18
2023-05-22T17:03:03.516Z,6.78
2023-05-22T17:05:30.271Z,6.00
2023-05-22T17:07:56.806Z,7.78
2023-05-22T17:10:23.692Z,6.85
2023-05-22T17:12:50.320Z,9.05
2023-05-22T17:15:16.796Z,10.52
2023-05-22T17:17:43.265Z,9.70
2023-05-22T17:20:10.261Z,11.20
2023-05-22T17:22:38.249Z,11.52
2023-05-22T17:25:06.133Z,8.68
2023-05-22T17:27:36.016Z,9.55
2023-05-22T17:30:03.365Z,9.38
2023-05-22T17:32:29.917Z,9.60
2023-05-22T17:34:56.504Z,9.18
2023-05-22T17:37:22.969Z,9.90
2023-05-22T17:39:49.445Z,9.90
2023-05-22T17:42:15.911Z,8.75
2023-05-22T17:44:42.402Z,14.05
2023-05-22T17:47:08.980Z,9.40
2023-05-22T17:49:37.105Z,8.93
2023-05-22T17:52:03.584Z,9.18
2023-05-22T17:54:34.567Z,9.48
2023-05-22T17:57:03.856Z,8.60
2023-05-22T17:59:33.373Z,12.15
2023-05-22T18:01:59.924Z,9.25
2023-05-22T18:04:26.502Z,8.98
2023-05-22T18:06:53.001Z,8.25
2023-05-22T18:09:19.516Z,8.82
2023-05-22T18:11:46.126Z,8.38
2023-05-22T18:14:12.647Z,9.23
2023-05-22T18:16:39.229Z,10.70
2023-05-22T18:19:05.842Z,10.80
2023-05-22T18:21:32.341Z,9.05
2023-05-22T18:23:58.985Z,9.45
2023-05-22T18:26:26.704Z,10.88
2023-05-22T18:28:53.181Z,8.70
2023-05-22T18:31:19.871Z,8.95
2023-05-22T18:33:46.642Z,12.57
2023-05-22T18:36:13.381Z,11.02
2023-05-22T18:38:39.858Z,10.82
2023-05-22T18:41:06.718Z,12.30
2023-05-22T18:43:33.393Z,10.80
2023-05-22T18:45:59.867Z,11.85
2023-05-22T18:48:27.297Z,11.80
2023-05-22T18:50:56.657Z,12.43
2023-05-22T18:53:25.045Z,11.75
2023-05-22T18:55:52.319Z,11.32
2023-05-22T18:58:18.889Z,11.43
2023-05-22T19:00:45.685Z,12.68
2023-05-22T19:03:12.673Z,14.82
2023-05-22T19:05:39.743Z,12.60
2023-05-22T19:08:06.395Z,13.38
2023-05-22T19:10:33.103Z,14.57
2023-05-22T19:12:59.716Z,14.63
2023-05-22T19:15:26.338Z,13.27
2023-05-22T19:17:53.009Z,14.15
2023-05-22T19:20:19.586Z,16.40
2023-05-22T19:22:46.289Z,13.50
2023-05-22T19:25:12.876Z,14.95
2023-05-22T19:27:39.626Z,15.45
2023-05-22T19:30:07.123Z,13.25
2023-05-22T19:32:33.869Z,14.15
2023-05-22T19:35:00.445Z,16.15
2023-05-22T19:37:26.924Z,13.30
2023-05-22T19:39:54.268Z,13.80
2023-05-22T19:42:20.790Z,13.48
2023-05-22T19:44:47.304Z,13.52
2023-05-22T19:47:13.921Z,15.73
2023-05-22T19:49:40.468Z,13.95
2023-05-22T19:52:06.910Z,14.13
2023-05-22T19:54:35.637Z,13.35
2023-05-22T19:57:03.013Z,13.95
2023-05-22T19:59:29.487Z,13.18
2023-05-22T20:01:56.163Z,13.80
2023-05-22T20:04:23.108Z,14.05
2023-05-22T20:06:49.593Z,14.13
2023-05-22T20:09:16.769Z,13.15
2023-05-22T20:11:43.273Z,16.00
2023-05-22T20:14:11.660Z,13.27
2023-05-22T20:16:38.304Z,13.65
2023-05-22T20:19:04.841Z,15.88
2023-05-22T20:21:32.003Z,14.18
2023-05-22T20:23:58.552Z,15.70
2023-05-22T20:26:25.056Z,14.90
2023-05-22T20:28:51.993Z,15.05
2023-05-22T20:31:18.619Z,14.50
2023-05-22T20:33:45.358Z,17.27
2023-05-22T20:36:14.836Z,18.52
2023-05-22T20:38:42.596Z,15.95
2023-05-22T20:41:10.006Z,17.88
2023-05-22T20:43:36.598Z,16.33
2023-05-22T20:46:03.213Z,16.98
2023-05-22T20:48:29.791Z,20.58
2023-05-22T20:50:56.324Z,17.52
2023-05-22T20:53:22.861Z,19.65
2023-05-22T20:55:49.335Z,17.23
2023-05-22T20:58:16.500Z,17.35
2023-05-22T21:00:43.128Z,16.80
2023-05-22T21:03:09.744Z,16.85
2023-05-22T21:05:36.647Z,18.90
2023-05-22T21:08:03.193Z,20.88
2023-05-22T21:10:29.690Z,20.15
2023-05-22T21:12:56.158Z,18.52
2023-05-22T21:15:22.663Z,19.50
2023-05-22T21:17:50.419Z,21.73
2023-05-22T21:20:17.089Z,18.15
2023-05-22T21:22:43.578Z,18.45
2023-05-22T21:25:10.088Z,19.13
2023-05-22T21:27:37.587Z,16.98
2023-05-22T21:30:04.481Z,19.88
2023-05-22T21:32:31.013Z,17.65
2023-05-22T21:34:57.548Z,17.67
2023-05-22T21:37:24.275Z,17.23
2023-05-22T21:39:50.727Z,16.95
2023-05-22T21:42:17.645Z,17.77
2023-05-22T21:44:44.203Z,17.38
2023-05-22T21:47:10.926Z,16.95
2023-05-22T21:49:39.568Z,17.75
2023-05-22T21:52:06.477Z,18.08
2023-05-22T21:54:32.932Z,20.60
2023-05-22T21:56:59.535Z,18.40
2023-05-22T21:59:26.153Z,21.98
2023-05-22T22:01:52.701Z,22.95
2023-05-22T22:04:19.225Z,25.52
2023-05-22T22:06:45.686Z,25.45
2023-05-22T22:09:12.273Z,22.23
2023-05-22T22:11:38.822Z,23.55
2023-05-22T22:14:05.466Z,19.35
2023-05-22T22:16:35.822Z,26.08
2023-05-22T22:19:03.293Z,21.50
2023-05-22T22:21:30.281Z,22.73
2023-05-22T22:23:56.744Z,22.00
2023-05-22T22:26:23.272Z,25.42
2023-05-22T22:28:49.776Z,22.67
2023-05-22T22:31:16.976Z,23.98
2023-05-22T22:33:43.500Z,23.77
2023-05-22T22:36:10.025Z,24.65
2023-05-22T22:38:36.836Z,27.50
2023-05-22T22:41:04.774Z,28.92
2023-05-22T22:43:31.389Z,25.30
2023-05-22T22:45:57.900Z,26.00
2023-05-22T22:48:24.509Z,25.63
2023-05-22T22:50:52.333Z,22.92
2023-05-22T22:53:19.194Z,25.85
2023-05-22T22:55:47.271Z,25.40
2023-05-22T22:58:13.959Z,25.45
2023-05-22T23:00:40.413Z,30.67
2023-05-22T23:03:07.046Z,31.27
2023-05-22T23:05:33.596Z,30.10
2023-05-22T23:08:01.918Z,29.17
2023-05-22T23:10:28.933Z,34.25
2023-05-22T23:12:55.872Z,35.10
2023-05-22T23:15:22.928Z,36.53
2023-05-22T23:17:51.706Z,36.53
2023-05-22T23:20:18.607Z,30.73
2023-05-22T23:22:45.239Z,30.17
2023-05-22T23:25:11.850Z,26.42
2023-05-22T23:27:39.139Z,27.05
2023-05-22T23:30:07.885Z,29.60
2023-05-22T23:32:34.441Z,33.08
2023-05-22T23:35:00.887Z,31.48
2023-05-22T23:37:27.328Z,32.00
2023-05-22T23:39:54.365Z,36.22
2023-05-22T23:42:20.862Z,34.97
2023-05-22T23:44:47.412Z,36.00
2023-05-22T23:47:13.995Z,33.90
2023-05-22T23:49:40.404Z,28.15
2023-05-22T23:52:08.001Z,32.72
2023-05-22T23:54:34.431Z,34.70
2023-05-22T23:57:01.138Z,33.38
2023-05-22T23:59:27.619Z,28.80
